Ville De Bordeaux — FZCE — position and weather

sailwx.info

Track history (hours):
 
Tides and Currents Weather Stations Pressure Air Temp Water Temp Dewpoint Dewpoint Depression Visibility Wind Speed Wind Dir Waves Ship Positions

Ville De Bordeaux

Last reported at 2016-Aug-22 03:16 UTC. Time now 2016-Aug-25 16:39 UTC.
Position N 35°60' W 005°12'.

Length 150 m; beam 24 m.

Type: Ship. MMSI: 228084000.

Date/timePositionNaut miles runAvg speedWind from/ knotsBaromVisibWave heightAir tempDewpointWater temp
2016-Aug-22 03:16N 35°60' W 005°12'1115.8
2016-Aug-22 02:33N 35°57' W 005°26'8 1.0
2016-Aug-21 19:14N 35°53' W 005°34'25 6.7
2016-Aug-21 15:27N 35°53' W 006°05'3516.1
2016-Aug-21 13:17N 36°00' W 006°48'1216.0
2016-Aug-21 12:33N 36°03' W 007°02'2216.6
2016-Aug-21 11:14N 36°08' W 007°28'16111.6
2016-Aug-20 21:18N 37°59' W 009°54'1315.9
2016-Aug-20 20:29N 38°12' W 009°58'1516.6
2016-Aug-20 19:33N 38°27' W 010°02'1616.2
2016-Aug-20 18:33N 38°43' W 010°06'1615.6
2016-Aug-20 17:33N 38°58' W 010°06'56612.8
2016-Aug-18 21:27N 46°51' W 003°00'1416.3
2016-Aug-18 20:33N 46°59' W 002°43'1615.6
2016-Aug-18 19:33N 47°07' W 002°23'1211.7
2016-Aug-18 18:33N 47°16' W 002°12'2 1.4
2016-Aug-18 17:19N 47°17' W 002°10'0 0.0
2016-Aug-18 07:13N 47°17' W 002°10'3 5.3
2016-Aug-18 06:33N 47°15' W 002°14'10 9.9
2016-Aug-18 05:33N 47°07' W 002°22'1413.8
2016-Aug-18 04:33N 46°60' W 002°39'1615.4
2016-Aug-18 03:30N 46°50' W 002°59'56412.0
2016-Aug-16 04:32N 38°54' W 009°52'1515.4
2016-Aug-16 03:33N 38°39' W 009°50'1515.1
2016-Aug-16 02:31N 38°24' W 009°47'1515.3
2016-Aug-16 01:33N 38°10' W 009°42'6215.4
2016-Aug-15 21:31N 37°10' W 009°24'198 9.9
2016-Aug-15 01:33N 35°58' W 005°34'1817.7
2016-Aug-15 00:34N 36°03' W 005°12'  
2016-Aug-12 18:33N 38°45' E 008°45'  
Track history (hours):
 
Tides and Currents Weather Stations Pressure Air Temp Water Temp Dewpoint Dewpoint Depression Visibility Wind Speed Wind Dir Waves Ship Positions

Ville De Bordeaux

Last reported at 2016-Aug-22 03:16 UTC. Time now 2016-Aug-25 16:39 UTC.
Position N 35°60' W 005°12'.

Length 150 m; beam 24 m.

Type: Ship. MMSI: 228084000.

Date/timePositionNaut miles runAvg speedWind from/ knotsBaromVisibWave heightAir tempDewpointWater temp
2016-Aug-22 03:16N 35°60' W 005°12'1115.8
2016-Aug-22 02:33N 35°57' W 005°26'8 1.0
2016-Aug-21 19:14N 35°53' W 005°34'25 6.7
2016-Aug-21 15:27N 35°53' W 006°05'3516.1
2016-Aug-21 13:17N 36°00' W 006°48'1216.0
2016-Aug-21 12:33N 36°03' W 007°02'2216.6
2016-Aug-21 11:14N 36°08' W 007°28'16111.6
2016-Aug-20 21:18N 37°59' W 009°54'1315.9
2016-Aug-20 20:29N 38°12' W 009°58'1516.6
2016-Aug-20 19:33N 38°27' W 010°02'1616.2
2016-Aug-20 18:33N 38°43' W 010°06'1615.6
2016-Aug-20 17:33N 38°58' W 010°06'56612.8
2016-Aug-18 21:27N 46°51' W 003°00'1416.3
2016-Aug-18 20:33N 46°59' W 002°43'1615.6
2016-Aug-18 19:33N 47°07' W 002°23'1211.7
2016-Aug-18 18:33N 47°16' W 002°12'2 1.4
2016-Aug-18 17:19N 47°17' W 002°10'0 0.0
2016-Aug-18 07:13N 47°17' W 002°10'3 5.3
2016-Aug-18 06:33N 47°15' W 002°14'10 9.9
2016-Aug-18 05:33N 47°07' W 002°22'1413.8
2016-Aug-18 04:33N 46°60' W 002°39'1615.4
2016-Aug-18 03:30N 46°50' W 002°59'56412.0
2016-Aug-16 04:32N 38°54' W 009°52'1515.4
2016-Aug-16 03:33N 38°39' W 009°50'1515.1
2016-Aug-16 02:31N 38°24' W 009°47'1515.3
2016-Aug-16 01:33N 38°10' W 009°42'6215.4
2016-Aug-15 21:31N 37°10' W 009°24'198 9.9
2016-Aug-15 01:33N 35°58' W 005°34'1817.7
2016-Aug-15 00:34N 36°03' W 005°12'  
2016-Aug-12 18:33N 38°45' E 008°45'  

Dump ship's entire track history